createdAt,value
2022-11-10T00:01:10.851Z,99.90
2022-11-10T00:03:39.389Z,99.90
2022-11-10T00:06:08.295Z,99.90
2022-11-10T00:08:35.593Z,99.90
2022-11-10T00:11:07.226Z,99.90
2022-11-10T00:13:57.039Z,99.90
2022-11-10T00:16:42.961Z,99.90
2022-11-10T00:19:10.075Z,99.90
2022-11-10T00:21:37.842Z,99.90
2022-11-10T00:24:06.022Z,99.90
2022-11-10T00:26:32.848Z,99.90
2022-11-10T00:28:59.766Z,99.90
2022-11-10T00:31:28.599Z,99.90
2022-11-10T00:33:56.044Z,99.90
2022-11-10T00:36:23.079Z,99.90
2022-11-10T00:38:53.010Z,99.90
2022-11-10T00:41:20.301Z,99.90
2022-11-10T00:43:47.920Z,99.90
2022-11-10T00:46:15.267Z,99.90
2022-11-10T00:48:42.101Z,99.90
2022-11-10T00:51:24.727Z,99.90
2022-11-10T00:53:52.283Z,99.90
2022-11-10T00:56:20.112Z,99.90
2022-11-10T00:58:47.365Z,99.90
2022-11-10T01:01:15.851Z,99.90
2022-11-10T01:03:42.766Z,99.90
2022-11-10T01:06:12.529Z,99.90
2022-11-10T01:08:40.373Z,99.90
2022-11-10T01:11:10.695Z,99.90
2022-11-10T01:13:37.514Z,99.90
2022-11-10T01:16:09.674Z,99.90
2022-11-10T01:18:37.343Z,99.90
2022-11-10T01:21:05.255Z,99.90
2022-11-10T01:23:32.461Z,99.90
2022-11-10T01:26:00.727Z,99.90
2022-11-10T01:28:27.836Z,99.90
2022-11-10T01:31:02.652Z,99.90
2022-11-10T01:33:29.610Z,99.90
2022-11-10T01:35:56.614Z,99.90
2022-11-10T01:38:24.214Z,99.90
2022-11-10T01:40:51.109Z,99.90
2022-11-10T01:43:18.003Z,99.90
2022-11-10T01:45:52.577Z,99.90
2022-11-10T01:48:28.775Z,99.90
2022-11-10T01:50:59.252Z,99.90
2022-11-10T01:53:28.896Z,99.90
2022-11-10T01:55:57.124Z,99.90
2022-11-10T01:58:30.456Z,99.90
2022-11-10T02:00:57.709Z,99.90
2022-11-10T02:03:37.861Z,99.90
2022-11-10T02:06:05.855Z,99.90
2022-11-10T02:08:32.929Z,99.90
2022-11-10T02:10:59.747Z,99.90
2022-11-10T02:13:26.603Z,99.90
2022-11-10T02:15:53.491Z,99.90
2022-11-10T02:18:20.474Z,99.90
2022-11-10T02:20:47.433Z,99.90
2022-11-10T02:23:35.824Z,99.90
2022-11-10T02:26:04.797Z,99.90
2022-11-10T02:28:36.947Z,99.90
2022-11-10T02:31:05.070Z,99.90
2022-11-10T02:33:32.207Z,99.90
2022-11-10T02:35:59.027Z,99.90
2022-11-10T02:38:25.856Z,99.90
2022-11-10T02:40:52.711Z,99.90
2022-11-10T02:43:20.438Z,99.90
2022-11-10T02:45:47.465Z,99.90
2022-11-10T02:48:15.792Z,99.90
2022-11-10T02:50:42.903Z,99.90
2022-11-10T02:53:09.978Z,99.90
2022-11-10T02:55:36.919Z,99.90
2022-11-10T02:58:03.859Z,99.90
2022-11-10T03:00:30.686Z,99.90
2022-11-10T03:02:58.951Z,99.90
2022-11-10T03:05:25.811Z,99.90
2022-11-10T03:07:57.376Z,99.90
2022-11-10T03:10:24.695Z,99.90
2022-11-10T03:12:58.161Z,99.90
2022-11-10T03:15:25.492Z,99.90
2022-11-10T03:17:53.103Z,99.90
2022-11-10T03:20:20.375Z,99.90
2022-11-10T03:22:47.264Z,99.90
2022-11-10T03:25:14.640Z,99.90
2022-11-10T03:27:41.480Z,99.90
2022-11-10T03:30:08.645Z,99.90
2022-11-10T03:32:35.428Z,99.90
2022-11-10T03:35:02.309Z,99.90
2022-11-10T03:37:29.130Z,99.90
2022-11-10T03:39:56.004Z,99.90
2022-11-10T03:42:22.800Z,99.90
2022-11-10T03:44:49.646Z,99.90
2022-11-10T03:47:16.443Z,99.90
2022-11-10T03:49:43.330Z,99.90
2022-11-10T03:52:10.115Z,99.90
2022-11-10T03:54:36.918Z,99.90
2022-11-10T03:57:04.404Z,99.90
2022-11-10T03:59:31.469Z,99.90
2022-11-10T04:01:58.314Z,99.90
2022-11-10T04:04:43.847Z,99.90
2022-11-10T04:07:32.300Z,99.90
2022-11-10T04:09:59.149Z,99.90
2022-11-10T04:12:44.398Z,99.90
2022-11-10T04:15:30.869Z,99.90
2022-11-10T04:18:16.459Z,99.90
2022-11-10T04:20:43.715Z,99.90
2022-11-10T04:23:28.898Z,99.90
2022-11-10T04:26:18.112Z,99.90
2022-11-10T04:28:49.793Z,99.90
2022-11-10T04:31:18.719Z,99.90
2022-11-10T04:33:45.833Z,99.90
2022-11-10T04:36:18.815Z,99.90
2022-11-10T04:38:46.230Z,99.90
2022-11-10T04:41:13.702Z,99.90
2022-11-10T04:43:40.821Z,99.90
2022-11-10T04:46:14.559Z,99.90
2022-11-10T04:48:41.396Z,99.90
2022-11-10T04:51:08.331Z,99.90
2022-11-10T04:53:35.204Z,99.90
2022-11-10T04:56:02.149Z,99.90
2022-11-10T04:58:29.013Z,99.90
2022-11-10T05:00:55.910Z,99.90
2022-11-10T05:03:23.008Z,99.90
2022-11-10T05:05:50.102Z,99.90
2022-11-10T05:08:16.910Z,99.90
2022-11-10T05:10:44.401Z,99.90
2022-11-10T05:13:11.524Z,99.90
2022-11-10T05:15:41.448Z,99.90
2022-11-10T05:18:08.502Z,99.90
2022-11-10T05:20:36.129Z,99.90
2022-11-10T05:23:21.960Z,99.90
2022-11-10T05:25:49.021Z,99.90
2022-11-10T05:28:17.037Z,99.90
2022-11-10T05:30:44.498Z,99.90
2022-11-10T05:33:11.654Z,99.90
2022-11-10T05:35:39.410Z,99.90
2022-11-10T05:38:06.952Z,99.90
2022-11-10T05:40:34.442Z,99.90
2022-11-10T05:43:01.816Z,99.90
2022-11-10T05:45:29.563Z,99.90
2022-11-10T05:47:56.675Z,99.90
2022-11-10T05:50:24.136Z,99.90
2022-11-10T05:52:54.690Z,99.90
2022-11-10T05:55:24.883Z,99.90
2022-11-10T05:57:52.870Z,99.90
2022-11-10T06:00:22.797Z,99.90
2022-11-10T06:03:07.259Z,99.90
2022-11-10T06:05:36.029Z,99.90
2022-11-10T06:08:04.782Z,99.90
2022-11-10T06:10:33.032Z,99.90
2022-11-10T06:13:00.309Z,99.90
2022-11-10T06:15:27.421Z,99.90
2022-11-10T06:17:55.144Z,99.90
2022-11-10T06:20:22.651Z,99.90
2022-11-10T06:23:06.068Z,99.90
2022-11-10T06:25:35.475Z,99.90
2022-11-10T06:28:03.537Z,99.90
2022-11-10T06:30:43.811Z,99.90
2022-11-10T06:33:10.819Z,99.90
2022-11-10T06:35:37.860Z,99.90
2022-11-10T06:38:11.981Z,99.90
2022-11-10T06:40:38.873Z,99.90
2022-11-10T06:43:05.810Z,99.90
2022-11-10T06:45:32.640Z,99.90
2022-11-10T06:48:07.548Z,99.90
2022-11-10T06:50:34.787Z,99.90
2022-11-10T06:53:01.908Z,99.90
2022-11-10T06:55:29.456Z,99.90
2022-11-10T06:57:58.016Z,99.90
2022-11-10T07:00:28.558Z,99.90
2022-11-10T07:03:06.753Z,99.90
2022-11-10T07:05:35.384Z,99.90
2022-11-10T07:08:16.016Z,99.90
2022-11-10T07:10:43.705Z,99.90
2022-11-10T07:13:11.181Z,99.90
2022-11-10T07:15:38.260Z,99.90
2022-11-10T07:18:05.493Z,99.90
2022-11-10T07:20:32.865Z,99.90
2022-11-10T07:23:05.258Z,99.90
2022-11-10T07:25:38.090Z,99.90
2022-11-10T07:28:11.892Z,99.90
2022-11-10T07:31:04.646Z,99.90
2022-11-10T07:33:53.287Z,99.90
2022-11-10T07:36:29.448Z,99.90
2022-11-10T07:38:59.215Z,99.90
2022-11-10T07:41:33.735Z,99.90
2022-11-10T07:44:06.585Z,99.90
2022-11-10T07:55:26.097Z,99.90
2022-11-10T07:58:48.359Z,99.90
2022-11-10T08:10:23.757Z,99.90
2022-11-10T08:15:09.373Z,99.90
2022-11-10T08:41:38.503Z,99.90
2022-11-10T08:47:09.253Z,99.90
2022-11-10T08:49:39.201Z,99.90
2022-11-10T08:52:09.218Z,99.90
2022-11-10T08:54:53.432Z,99.90
2022-11-10T08:57:20.486Z,99.90
2022-11-10T09:00:07.715Z,99.90
2022-11-10T09:03:15.915Z,99.90
2022-11-10T09:06:04.260Z,99.90
2022-11-10T09:12:09.842Z,99.90
2022-11-10T09:16:57.957Z,99.90
2022-11-10T09:26:35.812Z,99.90
2022-11-10T09:33:17.269Z,99.90
2022-11-10T09:36:08.664Z,99.90
2022-11-10T09:38:51.614Z,99.90
2022-11-10T09:45:09.001Z,99.90
2022-11-10T09:51:01.153Z,99.90
2022-11-10T09:53:38.724Z,97.20
2022-11-10T09:56:16.144Z,93.50
2022-11-10T09:59:13.292Z,93.70
2022-11-10T10:02:12.400Z,94.60
2022-11-10T10:04:58.711Z,95.60
2022-11-10T10:08:11.395Z,95.60
2022-11-10T10:11:38.839Z,91.50
2022-11-10T10:14:38.575Z,89.20
2022-11-10T10:17:59.117Z,91.90
2022-11-10T10:20:48.743Z,95.80
2022-11-10T10:27:37.430Z,99.90
2022-11-10T10:33:39.713Z,99.20
2022-11-10T10:36:27.054Z,97.60
2022-11-10T10:39:01.655Z,97.10
2022-11-10T10:41:33.743Z,97.60
2022-11-10T10:51:21.472Z,96.00
2022-11-10T10:55:04.534Z,94.50
2022-11-10T11:01:56.693Z,90.70
2022-11-10T11:04:37.051Z,88.70
2022-11-10T11:07:32.430Z,85.50
2022-11-10T11:10:35.471Z,82.30
2022-11-10T11:13:26.911Z,82.50
2022-11-10T11:16:02.013Z,81.90
2022-11-10T11:18:31.370Z,81.90
2022-11-10T11:21:29.636Z,80.20
2022-11-10T11:28:10.714Z,87.00
2022-11-10T11:51:33.600Z,85.30
2022-11-10T11:54:03.013Z,83.60
2022-11-10T11:56:53.634Z,78.00
2022-11-10T12:00:06.144Z,73.00
2022-11-10T12:09:58.627Z,65.70
2022-11-10T12:13:25.556Z,63.00
2022-11-10T12:16:23.367Z,62.80
2022-11-10T12:22:31.396Z,65.10
2022-11-10T12:25:43.833Z,63.90
2022-11-10T12:28:28.014Z,64.10
2022-11-10T12:34:23.261Z,63.80
2022-11-10T12:37:09.536Z,66.30
2022-11-10T12:44:29.826Z,63.30
2022-11-10T12:47:16.557Z,61.90
2022-11-10T12:50:06.295Z,61.80
2022-11-10T12:53:12.888Z,62.20
2022-11-10T13:21:44.791Z,88.30
2022-11-10T13:35:55.507Z,69.50
2022-11-10T13:38:39.640Z,65.50
2022-11-10T13:41:45.256Z,62.40
2022-11-10T13:44:28.304Z,61.30
2022-11-10T13:47:13.524Z,59.20
2022-11-10T13:49:43.628Z,59.10
2022-11-10T13:52:18.559Z,59.50
2022-11-10T13:55:09.438Z,58.80
2022-11-10T13:57:53.947Z,59.30
2022-11-10T14:00:21.091Z,60.00
2022-11-10T14:02:55.928Z,59.80
2022-11-10T14:05:28.843Z,59.10
2022-11-10T14:08:21.521Z,58.60
2022-11-10T14:10:55.891Z,58.40
2022-11-10T14:13:45.758Z,57.90
2022-11-10T14:16:18.854Z,57.90
2022-11-10T14:19:07.013Z,58.70
2022-11-10T14:21:43.466Z,58.70
2022-11-10T14:24:42.603Z,59.20
2022-11-10T14:27:21.633Z,58.10
2022-11-10T14:29:56.142Z,59.70
2022-11-10T14:33:15.230Z,62.00
2022-11-10T14:35:25.989Z,65.10
2022-11-10T15:23:35.175Z,85.70
2022-11-10T16:05:27.669Z,99.90
2022-11-10T16:08:19.301Z,99.90
2022-11-10T16:10:48.408Z,99.90
2022-11-10T16:13:24.873Z,99.90
2022-11-10T16:15:56.565Z,99.90
2022-11-10T16:18:29.459Z,99.90
2022-11-10T16:20:57.003Z,99.90
2022-11-10T16:23:25.722Z,99.90
2022-11-10T16:25:54.702Z,99.90
2022-11-10T16:28:27.360Z,99.90
2022-11-10T16:30:55.302Z,99.90
2022-11-10T16:33:24.609Z,99.90
2022-11-10T16:35:53.824Z,99.90
2022-11-10T16:38:26.726Z,99.90
2022-11-10T16:41:00.007Z,99.90
2022-11-10T16:43:28.074Z,99.90
2022-11-10T16:45:57.649Z,99.90
2022-11-10T16:48:30.664Z,99.90
2022-11-10T16:50:59.094Z,99.90
2022-11-10T16:53:29.003Z,99.90
2022-11-10T16:55:55.963Z,99.90
2022-11-10T16:58:26.043Z,99.90
2022-11-10T17:00:55.446Z,99.90
2022-11-10T17:03:33.860Z,99.90
2022-11-10T17:06:01.078Z,99.90
2022-11-10T17:08:30.132Z,99.90
2022-11-10T17:10:56.992Z,99.90
2022-11-10T17:13:24.570Z,99.90
2022-11-10T17:15:54.193Z,99.90
2022-11-10T17:18:26.791Z,99.90
2022-11-10T17:20:53.668Z,99.90
2022-11-10T17:23:23.298Z,99.90
2022-11-10T17:25:51.082Z,99.90
2022-11-10T17:28:19.037Z,99.90
2022-11-10T17:30:46.295Z,99.90
2022-11-10T17:33:13.719Z,99.90
2022-11-10T17:35:49.143Z,99.90
2022-11-10T17:38:30.835Z,99.90
2022-11-10T17:40:57.646Z,99.90
2022-11-10T17:43:25.337Z,99.90
2022-11-10T17:45:52.615Z,99.90
2022-11-10T17:48:19.430Z,99.90
2022-11-10T17:50:49.149Z,99.90
2022-11-10T17:53:16.573Z,99.90
2022-11-10T17:55:43.461Z,99.90
2022-11-10T17:58:10.986Z,99.90
2022-11-10T18:00:38.019Z,99.90
2022-11-10T18:03:08.634Z,99.90
2022-11-10T18:05:35.921Z,99.90
2022-11-10T18:08:02.855Z,99.90
2022-11-10T18:10:29.696Z,99.90
2022-11-10T18:12:56.484Z,99.90
2022-11-10T18:15:23.267Z,99.90
2022-11-10T18:17:50.095Z,99.90
2022-11-10T18:20:17.062Z,99.90
2022-11-10T18:22:43.846Z,99.90
2022-11-10T18:25:10.722Z,99.90
2022-11-10T18:27:37.883Z,99.90
2022-11-10T18:30:05.751Z,99.90
2022-11-10T18:32:32.636Z,99.90
2022-11-10T18:34:59.435Z,99.90
2022-11-10T18:37:26.960Z,99.90
2022-11-10T18:39:53.830Z,99.90
2022-11-10T18:42:20.684Z,99.90
2022-11-10T18:44:47.610Z,99.90
2022-11-10T18:47:14.464Z,99.90
2022-11-10T18:49:41.327Z,99.90
2022-11-10T18:52:08.854Z,99.90
2022-11-10T18:54:35.764Z,99.90
2022-11-10T18:57:02.539Z,99.90
2022-11-10T18:59:29.380Z,99.90
2022-11-10T19:01:56.512Z,99.90
2022-11-10T19:04:23.512Z,99.90
2022-11-10T19:06:50.330Z,99.90
2022-11-10T19:09:17.353Z,99.90
2022-11-10T19:11:44.441Z,99.90
2022-11-10T19:14:11.239Z,99.90
2022-11-10T19:16:38.028Z,99.90
2022-11-10T19:19:04.863Z,99.90
2022-11-10T19:21:31.802Z,99.90
2022-11-10T19:23:58.967Z,99.90
2022-11-10T19:26:27.223Z,99.90
2022-11-10T19:28:55.634Z,99.90
2022-11-10T19:31:24.251Z,99.90
2022-11-10T19:33:54.800Z,99.90
2022-11-10T19:36:26.690Z,99.90
2022-11-10T19:38:57.384Z,99.90
2022-11-10T19:41:27.057Z,99.90
2022-11-10T19:43:53.998Z,99.90
2022-11-10T19:46:24.461Z,99.90
2022-11-10T19:48:51.631Z,99.90
2022-11-10T19:51:19.159Z,99.90
2022-11-10T19:53:47.585Z,99.90
2022-11-10T19:56:16.910Z,99.90
2022-11-10T19:58:43.995Z,99.90
2022-11-10T20:01:11.738Z,99.90
2022-11-10T20:03:39.466Z,99.90
2022-11-10T20:06:09.819Z,99.90
2022-11-10T20:08:37.536Z,99.90
2022-11-10T20:11:13.269Z,99.90
2022-11-10T20:13:40.391Z,99.90
2022-11-10T20:16:09.954Z,99.90
2022-11-10T20:18:39.566Z,99.90
2022-11-10T20:21:09.115Z,99.90
2022-11-10T20:23:36.224Z,99.90
2022-11-10T20:26:12.464Z,99.90
2022-11-10T20:28:39.832Z,99.90
2022-11-10T20:31:20.636Z,99.90
2022-11-10T20:33:48.662Z,99.90
2022-11-10T20:36:21.421Z,99.90
2022-11-10T20:38:52.326Z,99.90
2022-11-10T20:41:22.267Z,99.90
2022-11-10T20:43:49.534Z,99.90
2022-11-10T20:46:40.099Z,99.90
2022-11-10T20:49:06.140Z,99.90
2022-11-10T20:51:32.934Z,99.90
2022-11-10T20:54:00.882Z,99.90
2022-11-10T20:56:29.878Z,99.90
2022-11-10T20:58:57.772Z,99.90
2022-11-10T21:01:25.279Z,99.90
2022-11-10T21:03:52.784Z,99.90
2022-11-10T21:06:19.639Z,99.90
2022-11-10T21:08:46.408Z,99.90
2022-11-10T21:11:33.179Z,99.90
2022-11-10T21:14:01.509Z,99.90
2022-11-10T21:16:28.466Z,99.90
2022-11-10T21:18:56.402Z,99.90
2022-11-10T21:21:34.079Z,99.90
2022-11-10T21:24:05.746Z,99.90
2022-11-10T21:26:34.321Z,99.90
2022-11-10T21:29:02.111Z,99.90
2022-11-10T21:31:30.612Z,99.90
2022-11-10T21:33:58.404Z,99.90
2022-11-10T21:36:29.258Z,99.90
2022-11-10T21:38:57.884Z,99.90
2022-11-10T21:41:25.590Z,99.90
2022-11-10T21:43:52.433Z,99.90
2022-11-10T21:46:19.954Z,99.90
2022-11-10T21:48:46.842Z,99.90
2022-11-10T21:51:14.426Z,99.90
2022-11-10T21:53:44.352Z,99.90
2022-11-10T21:56:12.070Z,99.90
2022-11-10T21:58:39.379Z,99.90
2022-11-10T22:01:06.411Z,99.90
2022-11-10T22:03:35.174Z,99.90
2022-11-10T22:06:06.936Z,99.90
2022-11-10T22:08:35.002Z,99.90
2022-11-10T22:11:20.761Z,99.90
2022-11-10T22:14:06.205Z,99.90
2022-11-10T22:17:00.796Z,99.90
2022-11-10T22:19:27.612Z,99.90
2022-11-10T22:21:55.239Z,99.90
2022-11-10T22:24:24.229Z,99.90
2022-11-10T22:26:51.319Z,99.90
2022-11-10T22:29:18.255Z,99.90
2022-11-10T22:31:45.102Z,99.90
2022-11-10T22:34:11.959Z,99.90
2022-11-10T22:36:38.892Z,99.90
2022-11-10T22:39:05.726Z,99.90
2022-11-10T22:41:51.072Z,99.90
2022-11-10T22:44:20.313Z,99.90
2022-11-10T22:46:52.207Z,99.90
2022-11-10T22:49:22.876Z,99.90
2022-11-10T22:51:55.327Z,99.90
2022-11-10T22:54:24.085Z,99.90
2022-11-10T22:56:51.795Z,99.90
2022-11-10T22:59:19.356Z,99.90
2022-11-10T23:01:46.304Z,99.90
2022-11-10T23:04:15.851Z,99.90
2022-11-10T23:06:42.994Z,99.90
2022-11-10T23:09:09.864Z,99.90
2022-11-10T23:11:36.819Z,99.90
2022-11-10T23:14:03.630Z,99.90
2022-11-10T23:16:34.264Z,99.90
2022-11-10T23:19:01.773Z,99.90
2022-11-10T23:21:30.445Z,99.90
2022-11-10T23:23:57.516Z,99.90
2022-11-10T23:26:34.065Z,99.90
2022-11-10T23:29:00.912Z,99.90
2022-11-10T23:31:28.607Z,99.90
2022-11-10T23:33:56.966Z,99.90
2022-11-10T23:36:26.075Z,99.90
2022-11-10T23:38:54.140Z,99.90
2022-11-10T23:41:28.890Z,99.90
2022-11-10T23:43:56.136Z,99.90
2022-11-10T23:46:22.947Z,99.90
2022-11-10T23:48:49.770Z,99.90
2022-11-10T23:51:17.006Z,99.90
2022-11-10T23:53:43.854Z,99.90
2022-11-10T23:56:14.269Z,99.90
2022-11-10T23:58:41.644Z,99.90
